Time;durP1;ratioP1;P1;durP2;ratioP2;P2;SDS_P1;SDS_P2;PMS_P1;PMS_P2;Temp;Humidity;BMP_temperature;BMP_pressure;BME280_temperature;BME280_humidity;BME280_pressure;Samples;Min_cycle;Max_cycle;Signal;HPM_P1;HPM_P2
2022/08/20 00:00:52;;;;;;;4.25;2.30;;;18.70;99.90;;;;;;5060253;28;20028;-79
2022/08/20 00:03:27;;;;;;;6.30;3.28;;;18.70;99.90;;;;;;5084756;28;20032;-80
2022/08/20 00:06:09;;;;;;;6.65;2.92;;;18.70;99.90;;;;;;5094323;28;20043;-79
2022/08/20 00:08:36;;;;;;;5.53;2.53;;;18.80;99.90;;;;;;5078590;28;20511;-79
2022/08/20 00:11:05;;;;;;;4.03;2.15;;;18.70;99.90;;;;;;5061707;28;20075;-79
2022/08/20 00:13:36;;;;;;;4.97;2.70;;;18.70;99.90;;;;;;5079370;28;20043;-79
2022/08/20 00:16:03;;;;;;;4.80;2.58;;;18.70;99.90;;;;;;5092352;28;22066;-79
2022/08/20 00:18:29;;;;;;;4.95;2.67;;;18.70;99.90;;;;;;5082489;28;20103;-79
2022/08/20 00:20:56;;;;;;;6.20;3.15;;;18.60;99.90;;;;;;5061534;28;20127;-79
2022/08/20 00:23:22;;;;;;;5.05;2.65;;;18.70;99.90;;;;;;5076797;28;20040;-79
2022/08/20 00:25:49;;;;;;;6.30;2.28;;;18.60;99.90;;;;;;5063061;28;20041;-79
2022/08/20 00:28:15;;;;;;;4.18;2.50;;;18.60;99.90;;;;;;5094987;28;20048;-80
2022/08/20 00:30:42;;;;;;;5.95;2.40;;;18.60;99.90;;;;;;5065400;28;20082;-79
2022/08/20 00:33:12;;;;;;;5.90;3.17;;;18.60;99.90;;;;;;5062225;28;20542;-79
2022/08/20 00:35:44;;;;;;;4.57;2.03;;;18.50;99.90;;;;;;5071152;28;20493;-79
2022/08/20 00:38:10;;;;;;;4.38;2.03;;;18.50;99.90;;;;;;5085914;28;20044;-79
2022/08/20 00:40:41;;;;;;;5.40;2.28;;;18.50;99.90;;;;;;5081178;28;20031;-79
2022/08/20 00:43:42;;;;;;;4.53;2.53;;;18.50;99.90;;;;;;5059020;28;20269;-79
2022/08/20 00:46:19;;;;;;;4.88;2.58;;;18.40;99.90;;;;;;5083068;28;20044;-79
2022/08/20 00:48:47;;;;;;;4.78;2.38;;;18.40;99.90;;;;;;5076886;28;22144;-79
2022/08/20 00:51:31;;;;;;;3.88;2.50;;;18.50;99.90;;;;;;5077162;28;20127;-79
2022/08/20 00:54:19;;;;;;;4.03;2.38;;;18.50;99.90;;;;;;5070537;28;20032;-79
2022/08/20 00:56:51;;;;;;;5.60;2.45;;;18.40;99.90;;;;;;5080359;28;20043;-79
2022/08/20 00:59:24;;;;;;;4.35;2.50;;;18.40;99.90;;;;;;5077955;28;20124;-79
2022/08/20 01:01:50;;;;;;;4.60;2.40;;;18.50;99.90;;;;;;5075344;28;20504;-79
2022/08/20 01:04:16;;;;;;;10.20;2.92;;;18.50;99.90;;;;;;5082533;28;22120;-79
2022/08/20 01:06:43;;;;;;;4.90;2.40;;;18.50;99.90;;;;;;5091524;28;20040;-79
2022/08/20 01:09:10;;;;;;;5.68;2.53;;;18.40;99.90;;;;;;5055814;28;20047;-79
2022/08/20 01:11:36;;;;;;;4.03;2.22;;;18.40;99.90;;;;;;5079913;28;20039;-79
2022/08/20 01:14:27;;;;;;;5.22;2.13;;;18.40;99.90;;;;;;5069594;28;20051;-79
2022/08/20 01:16:58;;;;;;;4.72;2.28;;;18.40;99.90;;;;;;5077414;28;20047;-79
2022/08/20 01:19:30;;;;;;;4.97;2.35;;;18.40;99.90;;;;;;5064577;28;20046;-79
2022/08/20 01:21:58;;;;;;;7.15;2.40;;;18.30;99.90;;;;;;5081138;28;20129;-79
2022/08/20 01:24:34;;;;;;;6.03;2.60;;;18.30;99.90;;;;;;5072204;28;20577;-79
2022/08/20 01:27:03;;;;;;;3.67;2.17;;;18.30;99.90;;;;;;5061997;28;20040;-80
2022/08/20 01:29:36;;;;;;;4.22;2.20;;;18.30;99.90;;;;;;5076851;28;20074;-79
2022/08/20 01:32:03;;;;;;;4.05;2.30;;;18.30;99.90;;;;;;5079999;28;20063;-80
2022/08/20 01:34:29;;;;;;;4.40;2.25;;;18.20;99.90;;;;;;5060049;28;20501;-79
2022/08/20 01:36:56;;;;;;;6.40;2.35;;;18.20;99.90;;;;;;5080152;28;20044;-79
2022/08/20 01:39:26;;;;;;;3.72;2.20;;;18.10;99.90;;;;;;5073621;28;20131;-79
2022/08/20 01:42:00;;;;;;;4.03;2.15;;;18.10;99.90;;;;;;5072746;28;20038;-79
2022/08/20 01:44:26;;;;;;;3.38;1.80;;;18.10;99.90;;;;;;5063640;28;20036;-80
2022/08/20 01:46:56;;;;;;;4.07;2.30;;;18.00;99.90;;;;;;5063156;28;20040;-80
2022/08/20 01:49:27;;;;;;;4.85;2.63;;;18.10;99.90;;;;;;5077851;28;20409;-79
2022/08/20 01:51:56;;;;;;;4.47;1.85;;;18.10;99.90;;;;;;5062310;28;20078;-79
2022/08/20 01:54:23;;;;;;;4.00;2.30;;;18.00;99.90;;;;;;5081524;28;20040;-79
2022/08/20 01:56:59;;;;;;;5.63;2.15;;;18.00;99.90;;;;;;5083837;28;20051;-79
2022/08/20 01:59:25;;;;;;;3.35;1.85;;;17.90;99.90;;;;;;5083276;28;20044;-79
2022/08/20 02:01:52;;;;;;;4.30;1.90;;;17.90;99.90;;;;;;5065749;28;20047;-79
2022/08/20 02:04:18;;;;;;;3.90;2.08;;;17.90;99.90;;;;;;5064719;28;20032;-79
2022/08/20 02:06:48;;;;;;;8.68;2.63;;;18.00;99.90;;;;;;5079552;28;20064;-79
2022/08/20 02:09:14;;;;;;;3.42;1.80;;;18.00;99.90;;;;;;5081032;28;20043;-79
2022/08/20 02:11:40;;;;;;;5.50;1.92;;;17.90;99.90;;;;;;5081737;28;20054;-78
2022/08/20 02:14:08;;;;;;;4.22;1.65;;;18.00;99.90;;;;;;5080175;28;20043;-78
2022/08/20 02:16:37;;;;;;;4.85;2.72;;;17.90;99.90;;;;;;5081787;28;20071;-78
2022/08/20 02:19:08;;;;;;;3.58;2.25;;;17.90;99.90;;;;;;5080116;28;20054;-79
2022/08/20 02:21:43;;;;;;;3.97;2.22;;;17.80;99.90;;;;;;5064487;28;20060;-79
2022/08/20 02:24:09;;;;;;;4.65;2.20;;;17.80;99.90;;;;;;5082341;28;20047;-79
2022/08/20 02:26:36;;;;;;;3.63;2.13;;;18.00;99.90;;;;;;5067806;28;20044;-79
2022/08/20 02:29:07;;;;;;;3.55;1.85;;;17.80;99.90;;;;;;5083737;28;20082;-78
2022/08/20 02:31:35;;;;;;;3.70;2.10;;;17.70;99.90;;;;;;5081850;28;20740;-78
2022/08/20 02:34:04;;;;;;;3.53;1.70;;;17.70;99.90;;;;;;5077184;28;20058;-79
2022/08/20 02:36:30;;;;;;;3.67;1.67;;;17.60;99.90;;;;;;5077681;28;20043;-78
2022/08/20 02:38:56;;;;;;;4.50;1.95;;;17.60;99.90;;;;;;5084502;28;20053;-79
2022/08/20 02:41:21;;;;;;;4.10;2.10;;;17.50;99.90;;;;;;5079140;28;20042;-78
2022/08/20 02:43:50;;;;;;;4.80;2.40;;;17.60;99.90;;;;;;5079459;28;20044;-78
2022/08/20 02:46:17;;;;;;;4.82;2.42;;;17.50;99.90;;;;;;5062407;28;20032;-79
2022/08/20 02:48:44;;;;;;;6.18;2.40;;;17.50;99.90;;;;;;5063445;28;20048;-79
2022/08/20 02:51:10;;;;;;;3.83;1.70;;;17.50;99.90;;;;;;5077837;28;20040;-78
2022/08/20 02:53:38;;;;;;;5.28;2.40;;;17.50;99.90;;;;;;5096432;28;20092;-79
2022/08/20 02:56:08;;;;;;;2.90;1.88;;;17.60;99.90;;;;;;5081054;28;20044;-78
2022/08/20 02:58:34;;;;;;;3.55;1.83;;;17.50;99.90;;;;;;5084144;28;20047;-78
2022/08/20 03:01:02;;;;;;;2.65;1.50;;;17.50;99.90;;;;;;5084887;28;20096;-78
2022/08/20 03:03:28;;;;;;;2.90;1.50;;;17.50;99.90;;;;;;5080968;28;20061;-78
2022/08/20 03:05:56;;;;;;;3.75;1.92;;;17.50;99.90;;;;;;5082284;28;20043;-78
2022/08/20 03:08:23;;;;;;;3.35;1.65;;;17.40;99.90;;;;;;5088435;27;20040;-78
2022/08/20 03:10:50;;;;;;;4.85;1.80;;;17.40;99.90;;;;;;5082060;28;20131;-78
2022/08/20 03:13:16;;;;;;;5.70;1.92;;;17.40;99.90;;;;;;5081395;28;20040;-78
2022/08/20 03:15:48;;;;;;;7.25;2.35;;;17.40;99.90;;;;;;5064732;28;20055;-78
2022/08/20 03:18:15;;;;;;;3.42;1.75;;;17.40;99.90;;;;;;5082907;28;20036;-78
2022/08/20 03:20:41;;;;;;;4.38;2.25;;;17.40;99.90;;;;;;5062114;28;20036;-77
2022/08/20 03:23:07;;;;;;;5.90;2.35;;;17.40;99.90;;;;;;5063370;28;20557;-78
2022/08/20 03:25:33;;;;;;;4.68;2.17;;;17.40;99.90;;;;;;5058161;28;20023;-78
2022/08/20 03:27:58;;;;;;;6.45;2.20;;;17.40;99.90;;;;;;5082561;28;20105;-78
2022/08/20 03:30:29;;;;;;;3.13;1.98;;;17.40;99.90;;;;;;5066012;28;20055;-78
2022/08/20 03:32:56;;;;;;;3.75;2.40;;;17.30;99.90;;;;;;5084076;28;20424;-78
2022/08/20 03:35:23;;;;;;;3.20;1.90;;;17.30;99.90;;;;;;5079587;28;20486;-78
2022/08/20 03:37:49;;;;;;;3.15;1.77;;;17.30;99.90;;;;;;5067155;28;20043;-79
2022/08/20 03:40:22;;;;;;;5.65;1.80;;;17.30;99.90;;;;;;5079358;28;20046;-78
2022/08/20 03:42:48;;;;;;;3.80;2.15;;;17.20;99.90;;;;;;5079140;28;20048;-78
2022/08/20 03:45:14;;;;;;;3.42;1.63;;;17.20;99.90;;;;;;5094799;28;20775;-78
2022/08/20 03:47:40;;;;;;;3.83;1.95;;;17.20;99.90;;;;;;5083359;28;20032;-78
2022/08/20 03:50:08;;;;;;;2.75;1.63;;;17.30;99.90;;;;;;5077334;28;20055;-78
2022/08/20 03:52:34;;;;;;;3.22;1.58;;;17.20;99.90;;;;;;5080387;28;20536;-78
2022/08/20 03:54:59;;;;;;;3.03;1.65;;;17.20;99.90;;;;;;5093598;27;20032;-78
2022/08/20 03:57:26;;;;;;;3.25;1.60;;;17.20;99.90;;;;;;5083076;28;20035;-78
2022/08/20 03:59:52;;;;;;;4.00;2.15;;;17.20;99.90;;;;;;5079877;28;20036;-78
2022/08/20 04:02:17;;;;;;;3.78;1.80;;;17.20;99.90;;;;;;5062075;28;20040;-78
2022/08/20 04:04:43;;;;;;;4.13;1.55;;;17.20;99.90;;;;;;5095878;28;20501;-78
2022/08/20 04:07:15;;;;;;;4.13;2.03;;;17.20;99.90;;;;;;5084720;28;20088;-78
2022/08/20 04:09:42;;;;;;;3.85;2.08;;;17.10;99.90;;;;;;5078989;28;20040;-78
2022/08/20 04:12:11;;;;;;;2.95;1.77;;;17.10;99.90;;;;;;5059155;28;20123;-78
2022/08/20 04:14:39;;;;;;;4.20;2.08;;;17.10;99.90;;;;;;5080169;28;20486;-78
2022/08/20 04:17:10;;;;;;;5.53;1.70;;;17.10;99.90;;;;;;5080851;28;20451;-78
2022/08/20 04:19:37;;;;;;;3.70;2.08;;;17.10;99.90;;;;;;5064713;28;20093;-78
2022/08/20 04:22:03;;;;;;;4.32;1.98;;;17.10;99.90;;;;;;5077341;28;21838;-78
2022/08/20 04:24:29;;;;;;;2.53;1.48;;;17.10;99.90;;;;;;5079036;28;20168;-78
2022/08/20 04:26:55;;;;;;;2.67;1.73;;;17.00;99.90;;;;;;5075218;28;20036;-78
2022/08/20 04:29:21;;;;;;;4.68;1.52;;;17.00;99.90;;;;;;5079299;28;20039;-78
2022/08/20 04:31:47;;;;;;;2.20;1.27;;;17.00;99.90;;;;;;5077947;28;20157;-78
2022/08/20 04:34:15;;;;;;;5.10;1.77;;;17.00;99.90;;;;;;5073715;28;20051;-78
2022/08/20 04:36:41;;;;;;;3.00;1.55;;;16.90;99.90;;;;;;5079126;28;20724;-78
2022/08/20 04:39:06;;;;;;;2.35;1.33;;;16.90;99.90;;;;;;5076422;28;20035;-78
2022/08/20 04:41:32;;;;;;;2.58;1.25;;;17.00;99.90;;;;;;5065465;28;20119;-78
2022/08/20 04:43:57;;;;;;;4.10;1.83;;;16.90;99.90;;;;;;5080035;28;20154;-77
2022/08/20 04:46:27;;;;;;;3.17;1.75;;;17.00;99.90;;;;;;5080659;28;20395;-78
2022/08/20 04:48:54;;;;;;;4.43;1.63;;;17.00;99.90;;;;;;5066620;28;20047;-78
2022/08/20 04:51:20;;;;;;;2.65;1.40;;;17.00;99.90;;;;;;5081661;28;20163;-78
2022/08/20 04:53:46;;;;;;;2.83;1.50;;;17.00;99.90;;;;;;5060647;28;20047;-78
2022/08/20 04:56:11;;;;;;;6.28;1.60;;;17.00;99.90;;;;;;5083458;28;20444;-78
2022/08/20 04:58:39;;;;;;;9.75;2.10;;;17.00;99.90;;;;;;5081866;28;20092;-78
2022/08/20 05:01:08;;;;;;;3.58;1.88;;;17.00;99.90;;;;;;5079790;28;20433;-77
2022/08/20 05:03:37;;;;;;;4.32;1.80;;;17.00;99.90;;;;;;5078960;28;20024;-78
2022/08/20 05:06:05;;;;;;;4.93;1.83;;;17.00;99.90;;;;;;5077812;28;20093;-78
2022/08/20 05:08:31;;;;;;;3.40;1.63;;;17.00;99.90;;;;;;5080376;28;20036;-78
2022/08/20 05:10:57;;;;;;;3.42;1.73;;;17.00;99.90;;;;;;5076555;28;20043;-78
2022/08/20 05:13:24;;;;;;;7.10;2.00;;;17.00;99.90;;;;;;5091018;28;20036;-77
2022/08/20 05:15:50;;;;;;;3.40;1.52;;;16.90;99.90;;;;;;5065031;28;20044;-78
2022/08/20 05:18:20;;;;;;;4.40;1.40;;;16.90;99.90;;;;;;5079575;28;20051;-78
2022/08/20 05:20:47;;;;;;;2.50;1.60;;;17.00;99.90;;;;;;5081405;28;20036;-77
2022/08/20 05:23:15;;;;;;;3.53;1.73;;;16.90;99.90;;;;;;5092662;28;20064;-77
2022/08/20 05:25:43;;;;;;;2.33;1.27;;;16.90;99.90;;;;;;5074365;28;20024;-78
2022/08/20 05:28:34;;;;;;;2.55;1.50;;;16.90;99.90;;;;;;5079507;28;20047;-78
2022/08/20 05:31:01;;;;;;;2.55;1.52;;;16.90;99.90;;;;;;5095151;28;20042;-78
2022/08/20 05:33:28;;;;;;;3.15;1.52;;;16.90;99.90;;;;;;5077585;28;20155;-78
2022/08/20 05:35:55;;;;;;;3.03;1.67;;;16.90;99.90;;;;;;5079673;28;20036;-78
2022/08/20 05:38:25;;;;;;;3.05;1.15;;;16.90;99.90;;;;;;5076942;28;20078;-78
2022/08/20 05:40:51;;;;;;;2.67;1.30;;;16.90;99.90;;;;;;5090087;28;20032;-77
2022/08/20 05:43:17;;;;;;;2.17;1.20;;;16.80;99.90;;;;;;5077193;28;20111;-78
2022/08/20 05:45:44;;;;;;;4.15;1.27;;;16.80;99.90;;;;;;5062856;28;20146;-78
2022/08/20 05:48:14;;;;;;;3.15;1.90;;;16.80;99.90;;;;;;5075716;28;20517;-78
2022/08/20 05:50:42;;;;;;;2.83;1.42;;;16.90;99.90;;;;;;5079875;28;20536;-78
2022/08/20 05:53:08;;;;;;;2.88;1.13;;;16.90;99.90;;;;;;5077577;28;20081;-77
2022/08/20 05:55:36;;;;;;;2.47;1.52;;;16.90;99.90;;;;;;5075963;28;20039;-78
2022/08/20 05:58:05;;;;;;;3.10;1.77;;;17.00;99.90;;;;;;5092121;28;20106;-78
2022/08/20 06:00:33;;;;;;;4.82;1.77;;;17.00;99.90;;;;;;5092684;28;20110;-78
2022/08/20 06:05:43;;;;;;;3.33;1.52;;;17.10;99.90;;;;;;5077911;28;20048;-78
2022/08/20 06:08:10;;;;;;;5.00;1.75;;;17.10;99.90;;;;;;5077712;28;20058;-78
2022/08/20 06:10:38;;;;;;;2.83;1.42;;;17.10;99.90;;;;;;5078805;28;20043;-78
2022/08/20 06:13:04;;;;;;;2.60;1.48;;;17.10;99.90;;;;;;5061729;28;20493;-78
2022/08/20 06:15:30;;;;;;;2.88;1.33;;;17.10;99.90;;;;;;5076359;28;20040;-78
2022/08/20 06:17:56;;;;;;;3.13;1.90;;;17.10;99.90;;;;;;5057954;28;20127;-78
2022/08/20 06:20:22;;;;;;;3.35;1.60;;;17.10;99.90;;;;;;5054970;28;20061;-78
2022/08/20 06:22:48;;;;;;;3.78;2.22;;;17.10;99.90;;;;;;5074550;28;20421;-78
2022/08/20 06:25:13;;;;;;;3.20;1.80;;;17.10;99.90;;;;;;5094989;28;20044;-75
2022/08/20 06:27:41;;;;;;;3.25;1.40;;;17.20;99.90;;;;;;5080645;28;20046;-77
2022/08/20 06:30:10;;;;;;;3.60;1.95;;;17.30;99.90;;;;;;5059421;28;20134;-78
2022/08/20 06:32:36;;;;;;;4.28;2.30;;;17.30;99.90;;;;;;5076930;28;20541;-78
2022/08/20 06:35:05;;;;;;;3.33;1.80;;;17.40;99.90;;;;;;5085524;28;20127;-77
2022/08/20 06:37:35;;;;;;;2.92;1.50;;;17.40;99.90;;;;;;5072777;28;20047;-78
2022/08/20 06:40:23;;;;;;;3.67;1.70;;;17.40;99.90;;;;;;5074429;28;20063;-78
2022/08/20 06:42:50;;;;;;;3.75;1.48;;;17.50;99.90;;;;;;5090782;28;20047;-77
2022/08/20 06:45:19;;;;;;;5.22;1.77;;;17.50;99.90;;;;;;5080734;28;20051;-78
2022/08/20 06:47:46;;;;;;;3.47;1.52;;;17.60;99.90;;;;;;5079828;28;20032;-78
2022/08/20 06:50:22;;;;;;;6.25;1.98;;;17.50;99.90;;;;;;5064924;28;20176;-78
2022/08/20 06:52:47;;;;;;;3.75;1.20;;;17.50;99.90;;;;;;5065153;28;20072;-77
2022/08/20 06:55:14;;;;;;;4.00;1.42;;;17.50;99.90;;;;;;5066998;28;20125;-78
2022/08/20 06:57:40;;;;;;;4.50;1.35;;;17.50;99.90;;;;;;5065912;28;20061;-78
2022/08/20 07:00:10;;;;;;;2.95;1.52;;;17.50;99.90;;;;;;5078268;28;21461;-77
2022/08/20 07:02:36;;;;;;;5.10;1.42;;;17.60;99.90;;;;;;5083671;28;20036;-77
2022/08/20 07:05:04;;;;;;;3.33;1.30;;;17.60;99.90;;;;;;5080527;28;20042;-78
2022/08/20 07:07:30;;;;;;;3.00;1.20;;;17.70;99.90;;;;;;5076987;28;20299;-79
2022/08/20 07:10:10;;;;;;;5.88;1.23;;;17.70;99.90;;;;;;5067096;28;20039;-79
2022/08/20 07:12:36;;;;;;;2.22;1.10;;;17.80;99.90;;;;;;5078151;28;20045;-79
2022/08/20 07:15:07;;;;;;;3.10;1.00;;;17.90;99.90;;;;;;5079468;28;20036;-79
2022/08/20 07:17:34;;;;;;;1.60;0.80;;;18.00;99.90;;;;;;5079520;28;20040;-78
2022/08/20 07:20:07;;;;;;;1.40;0.90;;;18.00;99.90;;;;;;5083566;28;20054;-80
2022/08/20 07:22:36;;;;;;;5.78;1.13;;;18.00;99.90;;;;;;5074383;28;20055;-75
2022/08/20 07:25:04;;;;;;;3.10;0.90;;;18.00;99.90;;;;;;5062580;28;20040;-80
2022/08/20 07:27:30;;;;;;;2.85;1.40;;;18.10;99.90;;;;;;5064021;28;20036;-80
2022/08/20 07:32:40;;;;;;;1.65;0.70;;;18.10;99.90;;;;;;5080065;28;20493;-78
2022/08/20 07:35:11;;;;;;;1.05;0.50;;;18.10;99.90;;;;;;5081051;28;20042;-79
2022/08/20 07:37:43;;;;;;;3.17;0.73;;;18.10;99.90;;;;;;5066059;28;20838;-79
2022/08/20 07:40:14;;;;;;;0.98;0.52;;;18.30;99.90;;;;;;5077926;28;20058;-77
2022/08/20 07:42:40;;;;;;;1.60;0.40;;;18.30;99.90;;;;;;5075455;28;20382;-79
2022/08/20 07:45:09;;;;;;;2.03;0.73;;;18.30;99.90;;;;;;5100531;28;20043;-79
2022/08/20 07:47:36;;;;;;;2.40;0.52;;;18.30;99.90;;;;;;5084294;28;20384;-79
2022/08/20 07:50:02;;;;;;;1.52;0.60;;;18.30;99.90;;;;;;5071936;28;20043;-79
2022/08/20 07:52:28;;;;;;;0.93;0.50;;;18.30;99.90;;;;;;5066165;28;20413;-79
2022/08/20 07:54:54;;;;;;;1.40;0.40;;;18.30;99.90;;;;;;5085470;28;20039;-79
2022/08/20 07:57:19;;;;;;;6.80;0.60;;;18.40;99.90;;;;;;5087013;28;20073;-79
2022/08/20 07:59:45;;;;;;;1.75;0.40;;;18.30;99.90;;;;;;5079856;28;20047;-79
2022/08/20 08:02:11;;;;;;;0.55;0.38;;;18.30;99.90;;;;;;5064870;28;20052;-79
2022/08/20 08:04:37;;;;;;;1.08;0.45;;;18.30;99.90;;;;;;5073503;28;20318;-79
2022/08/20 08:07:04;;;;;;;1.60;0.75;;;18.30;99.90;;;;;;5073197;28;20070;-79
2022/08/20 08:09:32;;;;;;;0.75;0.38;;;18.40;99.90;;;;;;5068982;28;20082;-79
2022/08/20 08:11:59;;;;;;;0.73;0.30;;;18.40;99.90;;;;;;5080204;28;20043;-79
2022/08/20 08:14:28;;;;;;;1.52;0.40;;;18.40;99.90;;;;;;5089589;28;20039;-79
2022/08/20 08:16:56;;;;;;;1.67;0.50;;;18.40;99.90;;;;;;5071159;28;20032;-78
2022/08/20 08:19:23;;;;;;;1.38;0.40;;;18.40;99.90;;;;;;5093072;27;20122;-79
2022/08/20 08:21:49;;;;;;;0.55;0.28;;;18.40;99.90;;;;;;5071415;28;20052;-78
2022/08/20 08:24:16;;;;;;;2.05;0.60;;;18.40;99.90;;;;;;5066268;28;20386;-79
2022/08/20 08:26:42;;;;;;;1.05;0.60;;;18.50;99.90;;;;;;5070488;28;20038;-79
2022/08/20 08:29:09;;;;;;;3.80;0.47;;;18.50;99.90;;;;;;5085587;28;20036;-79
2022/08/20 08:31:34;;;;;;;0.98;0.40;;;18.50;99.90;;;;;;5082887;28;20027;-79
2022/08/20 08:34:00;;;;;;;2.75;0.40;;;18.60;99.90;;;;;;5097406;28;20393;-79
2022/08/20 08:36:26;;;;;;;0.75;0.20;;;18.50;99.90;;;;;;5063223;28;20040;-79
2022/08/20 08:38:53;;;;;;;1.85;0.30;;;18.60;99.90;;;;;;5078576;28;20036;-79
2022/08/20 08:41:32;;;;;;;4.55;0.30;;;18.60;99.90;;;;;;5079370;28;20473;-79
2022/08/20 08:44:11;;;;;;;2.92;0.47;;;18.60;99.90;;;;;;5068680;28;20064;-79
2022/08/20 08:46:42;;;;;;;5.68;0.80;;;18.60;99.90;;;;;;5065204;28;20396;-80
2022/08/20 08:49:13;;;;;;;0.73;0.30;;;18.70;99.90;;;;;;5079870;28;20171;-79
2022/08/20 08:52:00;;;;;;;0.55;0.30;;;18.70;99.90;;;;;;5083029;28;20420;-79
2022/08/20 08:54:30;;;;;;;0.70;0.40;;;18.70;99.90;;;;;;5066760;28;20240;-80
2022/08/20 08:56:56;;;;;;;1.40;0.38;;;18.70;99.90;;;;;;5081865;28;20048;-79
2022/08/20 08:59:22;;;;;;;0.90;0.38;;;18.70;99.90;;;;;;5086492;28;20321;-79
2022/08/20 09:01:58;;;;;;;4.43;0.45;;;18.70;99.90;;;;;;5080554;28;20090;-79
2022/08/20 09:04:34;;;;;;;0.68;0.30;;;18.70;99.90;;;;;;5069087;28;20096;-79
2022/08/20 09:07:03;;;;;;;3.08;0.40;;;18.80;99.90;;;;;;5082379;28;20452;-80
2022/08/20 09:09:31;;;;;;;1.17;0.35;;;18.80;99.90;;;;;;5087027;28;20122;-79
2022/08/20 09:12:13;;;;;;;3.15;0.50;;;18.80;99.90;;;;;;5066794;28;20043;-79
2022/08/20 09:14:38;;;;;;;0.90;0.15;;;18.90;99.90;;;;;;5078285;28;20085;-79
2022/08/20 09:17:04;;;;;;;1.10;0.47;;;18.90;99.90;;;;;;5082570;28;20036;-79
2022/08/20 09:19:30;;;;;;;1.35;0.30;;;18.90;99.90;;;;;;5080427;28;20039;-79
2022/08/20 09:21:56;;;;;;;0.60;0.50;;;19.00;99.90;;;;;;5081424;28;20574;-78
2022/08/20 09:24:22;;;;;;;2.85;0.43;;;19.00;99.90;;;;;;5065274;28;20073;-79
2022/08/20 09:26:47;;;;;;;0.80;0.45;;;19.00;99.90;;;;;;5078628;28;20032;-79
2022/08/20 09:29:13;;;;;;;1.13;0.35;;;19.00;99.90;;;;;;5082227;28;20281;-78
2022/08/20 09:31:39;;;;;;;0.47;0.10;;;19.10;99.90;;;;;;5113633;27;20500;-77
2022/08/20 09:34:05;;;;;;;2.05;0.32;;;19.10;99.90;;;;;;5082475;28;20036;-77
2022/08/20 09:36:30;;;;;;;2.35;0.25;;;19.10;99.90;;;;;;5087905;28;20717;-77
2022/08/20 09:38:56;;;;;;;0.82;0.38;;;19.20;99.90;;;;;;5064807;28;20043;-77
2022/08/20 09:41:22;;;;;;;2.28;0.45;;;19.20;99.90;;;;;;5080356;28;20036;-74
2022/08/20 09:43:47;;;;;;;0.65;0.22;;;19.30;99.90;;;;;;5100040;27;20035;-76
2022/08/20 09:46:13;;;;;;;3.30;0.50;;;19.20;99.90;;;;;;5085267;28;20040;-76
2022/08/20 09:48:38;;;;;;;1.48;0.30;;;19.30;99.90;;;;;;5078089;28;20044;-76
2022/08/20 09:51:04;;;;;;;1.15;0.30;;;19.40;99.90;;;;;;5080910;28;20760;-75
2022/08/20 09:53:30;;;;;;;1.85;0.20;;;19.40;99.90;;;;;;5076859;28;20521;-75
2022/08/20 09:55:57;;;;;;;0.20;0.20;;;19.50;99.90;;;;;;5079355;28;20050;-75
2022/08/20 09:58:34;;;;;;;0.32;0.20;;;19.50;99.90;;;;;;5081476;28;20113;-75
2022/08/20 10:01:09;;;;;;;1.05;0.20;;;19.50;99.90;;;;;;5065209;28;20398;-75
2022/08/20 10:03:34;;;;;;;0.47;0.30;;;19.60;99.90;;;;;;5080239;28;20575;-75
2022/08/20 10:06:00;;;;;;;0.55;0.22;;;19.60;99.90;;;;;;5078168;28;20032;-76
2022/08/20 10:08:26;;;;;;;1.30;0.50;;;19.70;99.90;;;;;;5062654;28;20051;-75
2022/08/20 10:10:51;;;;;;;1.25;0.47;;;19.70;99.90;;;;;;5087831;28;20646;-75
2022/08/20 10:13:17;;;;;;;0.57;0.35;;;19.80;99.90;;;;;;5078798;28;20335;-75
2022/08/20 10:15:43;;;;;;;1.30;0.30;;;19.80;99.90;;;;;;5081593;28;20400;-75
2022/08/20 10:18:09;;;;;;;0.68;0.20;;;19.80;99.90;;;;;;5070938;28;20046;-75
2022/08/20 10:20:35;;;;;;;0.70;0.32;;;19.80;99.90;;;;;;5077743;28;20032;-75
2022/08/20 10:23:01;;;;;;;0.68;0.20;;;19.80;99.90;;;;;;5089039;28;20417;-73
2022/08/20 10:25:27;;;;;;;1.25;0.38;;;19.80;99.90;;;;;;5088080;28;20513;-75
2022/08/20 10:27:53;;;;;;;1.80;0.30;;;19.70;99.90;;;;;;5085383;28;20085;-74
2022/08/20 10:30:19;;;;;;;2.80;0.60;;;19.70;99.90;;;;;;5071967;28;20131;-74
2022/08/20 10:32:45;;;;;;;3.90;0.50;;;19.60;99.90;;;;;;5063915;28;20515;-75
2022/08/20 10:35:11;;;;;;;2.38;0.52;;;19.60;99.90;;;;;;5100425;28;20036;-75
2022/08/20 10:37:36;;;;;;;0.85;0.25;;;19.60;99.90;;;;;;5087095;28;20036;-75
2022/08/20 10:40:03;;;;;;;0.60;0.30;;;19.60;99.90;;;;;;5069523;28;20032;-75
2022/08/20 10:42:29;;;;;;;3.85;0.30;;;19.70;99.90;;;;;;5086185;28;20396;-75
2022/08/20 10:44:55;;;;;;;2.20;0.30;;;19.90;99.90;;;;;;5088378;28;20485;-75
2022/08/20 10:47:31;;;;;;;0.82;0.32;;;20.10;99.90;;;;;;5101574;28;20096;-75
2022/08/20 10:49:59;;;;;;;0.50;0.30;;;20.20;99.90;;;;;;5087645;28;20120;-75
2022/08/20 10:52:25;;;;;;;2.08;0.30;;;20.30;99.90;;;;;;5087844;28;20196;-75
2022/08/20 10:54:51;;;;;;;0.90;0.35;;;20.30;99.90;;;;;;5083616;28;20066;-75
2022/08/20 10:57:24;;;;;;;1.27;0.28;;;20.30;99.90;;;;;;5088929;28;20393;-75
2022/08/20 10:59:51;;;;;;;2.33;0.70;;;20.20;99.90;;;;;;5087179;28;20389;-75
2022/08/20 11:02:18;;;;;;;3.30;0.50;;;20.20;99.90;;;;;;5088916;28;20032;-75
2022/08/20 11:04:44;;;;;;;0.75;0.30;;;20.10;99.90;;;;;;5085557;28;20035;-75
2022/08/20 11:07:30;;;;;;;0.22;0.20;;;20.10;99.90;;;;;;5086671;28;20036;-75
2022/08/20 11:09:56;;;;;;;0.30;0.20;;;20.10;99.00;;;;;;5087330;28;20044;-75
2022/08/20 11:12:22;;;;;;;1.27;0.60;;;20.20;99.90;;;;;;5088062;28;20039;-75
2022/08/20 11:14:49;;;;;;;0.30;0.30;;;20.30;99.90;;;;;;5087638;28;20044;-74
2022/08/20 11:17:23;;;;;;;0.77;0.30;;;20.40;99.90;;;;;;5088999;28;20432;-74
2022/08/20 11:19:49;;;;;;;1.73;0.30;;;20.60;99.90;;;;;;5069473;28;20040;-74
2022/08/20 11:22:16;;;;;;;0.63;0.30;;;20.70;99.90;;;;;;5084495;28;20299;-74
2022/08/20 11:24:41;;;;;;;0.65;0.30;;;20.70;99.90;;;;;;5085471;28;20427;-74
2022/08/20 11:27:08;;;;;;;0.73;0.32;;;20.80;99.90;;;;;;5087906;28;20039;-74
2022/08/20 11:29:35;;;;;;;0.90;0.57;;;20.90;99.40;;;;;;5088123;28;20063;-74
2022/08/20 11:32:00;;;;;;;0.82;0.50;;;20.80;99.10;;;;;;5086484;28;20165;-74
2022/08/20 11:34:26;;;;;;;1.02;0.50;;;20.80;99.00;;;;;;5085576;28;20115;-74
2022/08/20 11:36:52;;;;;;;3.70;0.60;;;20.80;98.70;;;;;;5086644;28;20048;-74
2022/08/20 11:39:18;;;;;;;1.20;0.40;;;20.70;98.70;;;;;;5066917;28;20040;-75
2022/08/20 11:41:44;;;;;;;3.10;0.80;;;20.60;99.00;;;;;;5096610;27;20036;-74
2022/08/20 11:44:09;;;;;;;2.05;0.50;;;20.50;98.50;;;;;;5087415;28;20405;-75
2022/08/20 11:46:36;;;;;;;0.95;0.50;;;20.50;99.10;;;;;;5070583;28;20449;-74
2022/08/20 11:49:02;;;;;;;1.13;0.40;;;20.50;99.20;;;;;;5085190;28;20111;-74
2022/08/20 11:51:27;;;;;;;1.05;0.47;;;20.40;99.10;;;;;;5086788;28;20552;-74
2022/08/20 11:53:53;;;;;;;2.03;0.82;;;20.50;98.70;;;;;;5086159;28;20115;-74
2022/08/20 11:56:19;;;;;;;2.70;0.60;;;20.70;98.60;;;;;;5083009;28;20494;-74
2022/08/20 11:58:45;;;;;;;1.42;0.60;;;20.70;98.60;;;;;;5103154;28;20494;-74
2022/08/20 12:01:11;;;;;;;1.02;0.50;;;20.80;98.60;;;;;;5085090;28;20194;-74
2022/08/20 12:03:37;;;;;;;1.20;0.50;;;20.90;97.80;;;;;;5085681;28;20047;-74
2022/08/20 12:06:03;;;;;;;0.90;0.40;;;21.00;98.00;;;;;;5086998;28;20032;-74
2022/08/20 12:08:28;;;;;;;4.13;0.40;;;21.10;98.20;;;;;;5086814;28;20123;-74
2022/08/20 12:10:59;;;;;;;1.10;0.57;;;21.20;98.10;;;;;;5083859;28;20557;-74
2022/08/20 12:13:28;;;;;;;1.10;0.50;;;21.30;97.30;;;;;;5067307;28;20032;-74
2022/08/20 12:15:54;;;;;;;1.08;0.50;;;21.40;97.50;;;;;;5067800;28;20048;-74
2022/08/20 12:18:20;;;;;;;2.17;0.55;;;21.40;97.80;;;;;;5086115;28;20166;-74
2022/08/20 12:20:46;;;;;;;2.30;0.50;;;21.40;97.40;;;;;;5086853;28;20040;-74
2022/08/20 12:23:12;;;;;;;2.00;0.52;;;21.40;97.60;;;;;;5085921;28;20070;-74
2022/08/20 12:25:37;;;;;;;2.00;0.40;;;21.50;97.50;;;;;;5085541;28;20405;-74
2022/08/20 12:28:04;;;;;;;2.42;0.50;;;21.60;97.40;;;;;;5068227;28;20055;-74
2022/08/20 12:30:30;;;;;;;0.90;0.40;;;21.60;97.00;;;;;;5086524;28;20409;-74
2022/08/20 12:32:56;;;;;;;4.47;0.50;;;21.60;96.40;;;;;;5080420;28;20040;-74
2022/08/20 12:35:22;;;;;;;3.70;0.60;;;21.60;96.60;;;;;;5082622;28;20044;-74
2022/08/20 12:37:48;;;;;;;2.28;0.45;;;21.60;96.30;;;;;;5084547;28;20036;-74
2022/08/20 12:40:19;;;;;;;2.42;0.70;;;21.50;96.40;;;;;;5067840;28;20040;-74
2022/08/20 12:42:45;;;;;;;0.63;0.20;;;21.50;96.10;;;;;;5104016;28;20040;-74
2022/08/20 12:45:11;;;;;;;2.42;0.45;;;21.50;96.20;;;;;;5086062;28;20036;-74
2022/08/20 12:47:40;;;;;;;2.22;0.73;;;21.50;96.00;;;;;;5083350;28;20358;-74
2022/08/20 12:50:12;;;;;;;1.05;0.45;;;21.40;95.90;;;;;;5086240;28;20039;-74
2022/08/20 12:52:39;;;;;;;0.85;0.32;;;21.50;95.70;;;;;;5068704;28;20083;-74
2022/08/20 12:55:07;;;;;;;0.98;0.30;;;21.50;96.10;;;;;;5085538;28;20067;-74
2022/08/20 12:57:40;;;;;;;1.15;0.50;;;21.50;95.20;;;;;;5086767;28;20036;-74